KORF METAR and TAF | Updated Today

KORF METAR

Norfolk International Airport

Observation time: 55 min. ago

KORF 260051Z 15005KT 10SM CLR 23/14 A3014 RMK AO2 SLP205 T02280144

Need help? Read our tutorial on how to read METARs or read the parsed version below.

Norfolk International Airport (KORF) METAR

  • Weather conditions on Sun, 26 Jun 2022 00:51:00 +0000 (55 min. ago):
  • Present conditions: Dry
  • Clouds: Clear skies
  • Visibility: 16093 meters
  • Wind: 150 degrees at 5 knots
  • Temperature: 23 celsius
  • Dew point: 14 celsius
  • Pressure: 30.14 inHg
  • Remarks: AO2 SLP205 T02280144


Useful to know...

KORF TAF

Norfolk International Airport

KORF 252322Z 2600/2624 13007KT P6SM SKC FM260500 17004KT P6SM SKC FM260900 20006KT P6SM SKC FM261900 15012G19KT P6SM SKC
Observation time: 2:24 hr. ago
Need help? Read our tutorial on how to read TAFs or read the parsed version below.

Parsed version of TAF for Norfolk International Airport (KORF)

  • From 26 June at 00:00 UTC, to day 26 of the month at 24:00 UTC
  • Clouds: No significant changes expected
  • Wind: 130 degrees at 7
  • From day 26 of the month at 05:00 UTC
  • Clouds: No significant changes expected
  • Wind: 170 degrees at 4
  • From day 26 of the month at 09:00 UTC
  • Clouds: No significant changes expected
  • Wind: 200 degrees at 6
  • From day 26 of the month at 19:00 UTC
  • Clouds: No significant changes expected
  • Wind: 150 degrees at 12